createdAt,value
2019-04-16T00:04:10.935Z,5.97
2019-04-16T00:09:19.334Z,6.03
2019-04-16T00:14:27.532Z,5.60
2019-04-16T00:19:35.761Z,5.14
2019-04-16T00:24:44.173Z,5.38
2019-04-16T00:29:52.379Z,6.01
2019-04-16T00:35:00.675Z,5.49
2019-04-16T00:40:08.877Z,4.88
2019-04-16T00:45:17.125Z,4.87
2019-04-16T00:50:25.637Z,5.09
2019-04-16T00:55:34.344Z,4.58
2019-04-16T01:00:42.732Z,5.01
2019-04-16T01:05:51.147Z,4.47
2019-04-16T01:10:59.243Z,4.46
2019-04-16T01:16:07.521Z,4.71
2019-04-16T01:21:15.639Z,4.82
2019-04-16T01:26:24.246Z,4.80
2019-04-16T01:31:31.425Z,4.92
2019-04-16T01:36:39.588Z,4.40
2019-04-16T01:41:50.254Z,5.20
2019-04-16T01:46:55.398Z,4.76
2019-04-16T01:52:03.701Z,4.53
2019-04-16T01:57:12.002Z,5.06
2019-04-16T02:02:20.249Z,5.00
2019-04-16T02:07:28.676Z,4.79
2019-04-16T02:12:36.670Z,4.78
2019-04-16T02:17:44.909Z,5.16
2019-04-16T02:22:53.243Z,5.62
2019-04-16T02:28:01.441Z,5.34
2019-04-16T02:33:09.835Z,5.13
2019-04-16T02:38:18.102Z,5.35
2019-04-16T02:43:26.322Z,5.42
2019-04-16T02:48:34.604Z,5.58
2019-04-16T02:53:42.753Z,5.33
2019-04-16T02:58:50.867Z,5.42
2019-04-16T03:03:59.093Z,5.42
2019-04-16T03:09:08.971Z,5.45
2019-04-16T03:14:15.094Z,5.43
2019-04-16T03:19:23.230Z,5.62
2019-04-16T03:24:31.428Z,5.41
2019-04-16T03:29:39.679Z,5.35
2019-04-16T03:34:50.474Z,5.30
2019-04-16T03:39:55.493Z,5.69
2019-04-16T03:45:07.985Z,5.46
2019-04-16T03:50:11.566Z,5.38
2019-04-16T03:55:22.613Z,5.34
2019-04-16T04:00:27.273Z,5.64
2019-04-16T04:05:35.815Z,5.64
2019-04-16T04:10:43.842Z,5.44
2019-04-16T04:15:54.834Z,5.80
2019-04-16T04:21:00.002Z,5.78
2019-04-16T04:26:09.392Z,5.75
2019-04-16T04:31:16.035Z,5.82
2019-04-16T04:36:27.177Z,5.78
2019-04-16T04:41:31.895Z,5.76
2019-04-16T04:46:43.185Z,5.78
2019-04-16T04:51:48.257Z,5.88
2019-04-16T04:56:59.138Z,5.93
2019-04-16T05:02:04.757Z,6.09
2019-04-16T05:07:13.229Z,6.00
2019-04-16T05:12:21.266Z,5.53
2019-04-16T05:17:26.330Z,6.26
2019-04-16T05:22:34.670Z,6.37
2019-04-16T05:27:42.866Z,6.52
2019-04-16T05:32:51.478Z,6.09
2019-04-16T05:38:00.168Z,6.19
2019-04-16T05:43:08.534Z,6.41
2019-04-16T05:48:18.518Z,6.27
2019-04-16T05:53:25.082Z,6.01
2019-04-16T05:58:33.549Z,5.64
2019-04-16T06:03:41.799Z,5.92
2019-04-16T06:08:50.522Z,5.91
2019-04-16T06:14:00.238Z,5.88
2019-04-16T06:19:08.524Z,5.65
2019-04-16T06:24:14.418Z,5.88
2019-04-16T06:29:25.404Z,5.66
2019-04-16T06:34:30.702Z,5.63
2019-04-16T06:39:39.115Z,5.53
2019-04-16T06:44:47.733Z,5.55
2019-04-16T06:49:57.105Z,6.13
2019-04-16T06:55:05.321Z,5.95
2019-04-16T07:00:13.547Z,5.78
2019-04-16T07:05:21.753Z,5.65
2019-04-16T07:10:43.511Z,6.00
2019-04-16T07:15:38.258Z,5.47
2019-04-16T07:20:46.632Z,5.85
2019-04-16T07:25:54.806Z,5.66
2019-04-16T07:31:05.198Z,6.31
2019-04-16T07:36:12.503Z,5.45
2019-04-16T07:41:23.648Z,6.05
2019-04-16T07:46:30.628Z,5.53
2019-04-16T07:51:41.463Z,5.74
2019-04-16T07:56:39.438Z,6.34
2019-04-16T08:01:50.871Z,6.32
2019-04-16T08:06:49.401Z,5.98
2019-04-16T08:12:01.057Z,5.91
2019-04-16T08:17:05.444Z,5.90
2019-04-16T08:22:03.748Z,6.26
2019-04-16T08:27:18.056Z,6.46
2019-04-16T08:32:19.775Z,6.19
2019-04-16T08:37:28.044Z,6.37
2019-04-16T08:42:44.347Z,6.46
2019-04-16T08:47:45.105Z,6.07
2019-04-16T08:52:51.464Z,7.49
2019-04-16T08:57:59.690Z,6.52
2019-04-16T09:03:07.746Z,6.89
2019-04-16T09:08:15.974Z,6.86
2019-04-16T09:13:24.185Z,8.15
2019-04-16T09:18:32.350Z,7.80
2019-04-16T09:23:40.450Z,7.95
2019-04-16T09:28:48.583Z,8.30
2019-04-16T09:33:57.487Z,8.32
2019-04-16T09:39:05.144Z,8.45
2019-04-16T09:44:14.077Z,8.43
2019-04-16T09:49:22.493Z,8.02
2019-04-16T09:54:30.918Z,9.10
2019-04-16T09:59:39.136Z,8.73
2019-04-16T10:04:47.368Z,7.99
2019-04-16T10:09:55.484Z,8.30
2019-04-16T10:15:03.935Z,8.52
2019-04-16T10:20:12.059Z,8.70
2019-04-16T10:25:20.556Z,9.29
2019-04-16T10:30:30.260Z,9.37
2019-04-16T10:35:37.244Z,9.20
2019-04-16T10:40:45.689Z,8.46
2019-04-16T10:45:54.112Z,8.51
2019-04-16T10:51:02.932Z,8.22
2019-04-16T10:56:11.398Z,8.98
2019-04-16T11:01:19.874Z,8.92
2019-04-16T11:06:28.460Z,9.39
2019-04-16T11:11:36.832Z,9.15
2019-04-16T11:16:45.546Z,9.41
2019-04-16T11:21:54.386Z,9.03
2019-04-16T11:27:02.983Z,8.83
2019-04-16T11:32:11.409Z,8.51
2019-04-16T11:37:19.885Z,8.84
2019-04-16T11:42:28.223Z,8.04
2019-04-16T11:47:36.749Z,8.02
2019-04-16T11:52:45.360Z,7.92
2019-04-16T11:57:53.787Z,7.66
2019-04-16T12:03:02.287Z,7.45
2019-04-16T12:08:09.994Z,7.59
2019-04-16T12:13:19.441Z,7.54
2019-04-16T12:18:27.882Z,7.85
2019-04-16T12:23:36.501Z,7.88
2019-04-16T12:28:45.046Z,7.67
2019-04-16T12:33:53.287Z,8.02
2019-04-16T12:39:01.734Z,7.70
2019-04-16T12:44:10.112Z,7.35
2019-04-16T12:49:18.373Z,7.27
2019-04-16T12:54:26.618Z,6.98
2019-04-16T12:59:35.830Z,6.44
2019-04-16T13:04:45.669Z,6.54
2019-04-16T13:09:52.098Z,6.27
2019-04-16T13:15:01.329Z,6.26
2019-04-16T13:20:07.942Z,6.66
2019-04-16T13:25:16.105Z,6.53
2019-04-16T13:30:24.225Z,6.84
2019-04-16T13:35:34.492Z,7.54
2019-04-16T13:40:32.606Z,7.43
2019-04-16T13:45:41.092Z,7.14
2019-04-16T13:50:49.790Z,7.37
2019-04-16T13:55:58.326Z,7.58
2019-04-16T14:01:10.174Z,6.89
2019-04-16T14:06:15.137Z,7.03
2019-04-16T14:11:23.385Z,7.43
2019-04-16T14:16:30.057Z,6.31
2019-04-16T14:21:38.401Z,6.16
2019-04-16T14:26:46.605Z,5.82
2019-04-16T14:31:54.862Z,5.49
2019-04-16T14:37:03.014Z,5.56
2019-04-16T14:42:11.641Z,5.28
2019-04-16T14:47:19.501Z,5.69
2019-04-16T14:52:27.748Z,5.28
2019-04-16T14:57:35.935Z,5.65
2019-04-16T15:02:44.529Z,5.92
2019-04-16T15:07:53.006Z,5.93
2019-04-16T15:13:01.646Z,5.88
2019-04-16T15:18:10.728Z,5.74
2019-04-16T15:23:20.762Z,6.21
2019-04-16T15:28:20.114Z,6.19
2019-04-16T15:33:28.873Z,6.31
2019-04-16T15:38:37.404Z,5.87
2019-04-16T15:43:50.446Z,6.63
2019-04-16T15:48:53.525Z,7.03
2019-04-16T15:54:02.013Z,7.64
2019-04-16T15:59:11.481Z,8.19
2019-04-16T16:04:22.523Z,8.21
2019-04-16T16:09:27.622Z,8.87
2019-04-16T16:14:38.699Z,8.79
2019-04-16T16:19:43.713Z,8.76
2019-04-16T16:24:52.248Z,8.79
2019-04-16T16:30:06.256Z,9.50
2019-04-16T16:35:04.701Z,9.22
2019-04-16T16:40:15.084Z,9.31
2019-04-16T16:45:21.394Z,8.98
2019-04-16T16:50:30.307Z,9.15
2019-04-16T16:55:38.926Z,9.45
2019-04-16T17:00:47.520Z,9.22
2019-04-16T17:05:56.736Z,9.41
2019-04-16T17:11:15.766Z,9.69
2019-04-16T17:16:14.843Z,9.15
2019-04-16T17:21:22.543Z,9.21
2019-04-16T17:26:31.495Z,8.99
2019-04-16T17:31:40.043Z,8.32
2019-04-16T17:36:48.406Z,8.39
2019-04-16T17:41:59.686Z,8.61
2019-04-16T17:47:05.722Z,8.49
2019-04-16T17:52:13.893Z,8.18
2019-04-16T17:57:23.297Z,7.78
2019-04-16T18:02:30.518Z,7.92
2019-04-16T18:07:39.069Z,8.26
2019-04-16T18:12:50.684Z,8.36
2019-04-16T18:18:00.885Z,8.15
2019-04-16T18:23:05.325Z,8.19
2019-04-16T18:28:13.691Z,8.10
2019-04-16T18:33:21.870Z,8.39
2019-04-16T18:38:31.016Z,8.02
2019-04-16T18:43:39.363Z,8.31
2019-04-16T18:48:47.585Z,8.87
2019-04-16T18:53:55.852Z,8.75
2019-04-16T18:59:03.989Z,8.56
2019-04-16T19:04:12.285Z,8.80
2019-04-16T19:09:21.010Z,9.36
2019-04-16T19:14:28.127Z,8.87
2019-04-16T19:19:36.501Z,8.87
2019-04-16T19:24:44.826Z,8.60
2019-04-16T19:29:53.109Z,8.97
2019-04-16T19:35:09.890Z,9.05
2019-04-16T19:40:09.363Z,9.68
2019-04-16T19:45:17.462Z,8.59
2019-04-16T19:50:25.759Z,9.45
2019-04-16T19:55:34.313Z,8.45
2019-04-16T20:00:42.762Z,8.76
2019-04-16T20:05:51.015Z,8.22
2019-04-16T20:10:59.173Z,8.86
2019-04-16T20:16:07.259Z,8.57
2019-04-16T20:21:15.376Z,8.79
2019-04-16T20:26:23.402Z,8.84
2019-04-16T20:31:31.732Z,8.60
2019-04-16T20:36:39.958Z,8.66
2019-04-16T20:41:52.778Z,8.17
2019-04-16T20:46:58.254Z,8.66
2019-04-16T20:52:04.168Z,7.80
2019-04-16T20:57:11.986Z,7.95
2019-04-16T21:02:20.325Z,7.39
2019-04-16T21:07:28.586Z,7.06
2019-04-16T21:12:36.718Z,6.94
2019-04-16T21:17:45.054Z,6.76
2019-04-16T21:22:57.397Z,6.47
2019-04-16T21:28:02.039Z,6.44
2019-04-16T21:33:10.129Z,6.81
2019-04-16T21:38:18.317Z,6.76
2019-04-16T21:43:26.481Z,6.58
2019-04-16T21:48:34.566Z,6.61
2019-04-16T21:53:42.675Z,6.29
2019-04-16T21:58:50.109Z,6.54
2019-04-16T22:03:57.029Z,6.43
2019-04-16T22:09:05.201Z,6.46
2019-04-16T22:14:13.392Z,6.62
2019-04-16T22:19:21.609Z,6.42
2019-04-16T22:24:30.337Z,6.67
2019-04-16T22:29:38.509Z,7.15
2019-04-16T22:34:46.971Z,6.84
2019-04-16T22:39:55.000Z,6.82
2019-04-16T22:45:03.157Z,7.12
2019-04-16T22:50:16.732Z,7.38
2019-04-16T22:55:21.750Z,7.32
2019-04-16T23:00:26.265Z,7.26
2019-04-16T23:05:34.345Z,7.31
2019-04-16T23:10:42.397Z,7.38
2019-04-16T23:15:50.622Z,7.07
2019-04-16T23:20:58.670Z,7.46
2019-04-16T23:26:06.773Z,8.02
2019-04-16T23:31:14.925Z,7.51
2019-04-16T23:36:22.966Z,8.08
2019-04-16T23:41:31.233Z,7.63
2019-04-16T23:46:39.309Z,7.95
2019-04-16T23:51:47.524Z,7.35
2019-04-16T23:56:55.592Z,7.18
